Cabramurra, Australia
Current Conditions -  °F | °C
As of 10:00 AM on Saturday 25 Oct 2014 (Local Time) from YCOM Reporting Station
Scattered Clouds Scattered Clouds  
Wind Chill: 72°   Ceiling: Unl
Heat Index: 72°   Visibility: 6mi
Dew Point: 52°   Wind: 6mph
Humidity: 50%   Direction: 50°NE
Pressure: 30.06"   Gusts: NA
Location:  35.93°S, 148.38°E
Report Text: YCOM 242300Z AUTO 05005KT 9999 // SCT097 22/11 Q1018
Loading
Personal Weather Stations






























Interactive Weather Map
Tropical Storm Tracking
New forecast layout! Learn more

10-Day Weather Forecast

Advertisements
Track Severe Weather on mobile